Terminal Aerodrome Forecast
Issued by NWS Blacksburg, VA

Home | Current Version | Previous Version | Text Only | Print | Product List | Glossary On
Versions: 1 2 3 4 5 6 7 8 9 10 11 12 13 14 15 16 17 18 19 20 21 22 23 24 25 26 27 28
000
FTUS41 KRNK 271730
TAFROA
TAF
KROA 271730Z 2718/2818 22010KT P6SM VCSH SCT045
     FM272100 20008KT P6SM SCT050 BKN120
     FM280000 VRB03KT P6SM SCT120 BKN250
     FM281400 12005KT P6SM BKN040 BKN120=

USA.gov is the U.S. government's official web portal to all federal, state and local government web resources and services.